Skip Navigation LinksHome page > Weather > Current weather Skip Navigation Links

Current Weather

Ndjamena, Chad

For information only: do not use for flight planning or navigation.
Latest weather
Observation time Friday, March 6, 2015 6:00 AM WAT
Local time Friday, March 6, 2015 6:54 AM WAT
Flight conditions Instrument Meteorological Conditions
Winds
Wind direction North (10°)
Wind speed 6 mph
Visibility 2 mi.
Present weather dust
Sky condition
Ceiling unlimited
Temperature 77°F
Dewpoint 50°F
Altimeter 29.85 in.Hg
Derived measurements
Relative humidity 39%
Heat index 77°F
Density altitude 1704 ft.
METAR FTTJ 060500Z 01005KT 3200 DU NSC 25/10 Q1011 TEMPO 2500

Settings

Location code

InnerDrive.Weather 4.0.5505.0 Release CLR 4.0.30319.34014
Copyright ©2015 Inner Drive Technology. All rights reserved. Portions Copyright ©1986-2015 David Braverman.

Find weather

Site navigation


Skip Navigation Links

Place info

Page info

PayPal - The safer, easier way to pay online!

Return home.

Copyright ©2015 Inner Drive Technology. Purveyors of fine, hand-crafted computer software. Page printed 2015-03-06T05:54:11 UTC.